Coral Canyon GC
1925 N Canyon Greens Drive, Washington
Last Weather Update:07/30/2011 11:00:00 PM
Date
ETo
ETc
Rain
Irrigation
Req
Temp
Max
Temp
Min
Temp
Avg
Avg RH
Avg Wind
Avg Solar
inches
inches
incehs
inches
F
F
F
%
%
watts/m2
06/01/2011 0.20" 0.16" 0.00" 0.16" 84.2° 53.9° 70.7° 14.9% 3.6 MPH 199.5w/m2
06/02/2011 0.26" 0.20" 0.00" 0.20" 77.6° 39.0° 63.8° 18.0% 3.4 MPH 357.6w/m2
06/03/2011 0.22" 0.17" 0.00" 0.17" 84.3° 43.9° 64.9° 22.4% 1.1 MPH 349.7w/m2
06/04/2011 0.25" 0.20" 0.00" 0.20" 91.3° 49.3° 71.9° 20.4% 2.2 MPH 354.0w/m2
06/05/2011 0.27" 0.22" 0.00" 0.22" 93.7° 49.9° 75.3° 17.0% 2.4 MPH 359.0w/m2
06/06/2011 0.28" 0.22" 0.00" 0.22" 80.3° 53.9° 70.9° 21.0% 4.4 MPH 355.2w/m2
06/07/2011 0.26" 0.21" 0.00" 0.21" 86.4° 45.3° 67.8° 27.7% 3.2 MPH 359.3w/m2
06/08/2011 0.26" 0.21" 0.00" 0.21" 85.6° 51.3° 68.9° 25.2% 2.9 MPH 356.7w/m2
06/09/2011 0.26" 0.21" 0.00" 0.21" 89.5° 52.0° 71.3° 25.8% 3.1 MPH 353.6w/m2
06/10/2011 0.27" 0.22" 0.00" 0.22" 93.2° 52.1° 75.2° 24.9% 3.1 MPH 352.7w/m2
06/11/2011 0.28" 0.22" 0.00" 0.22" 91.2° 59.0° 76.6° 18.7% 3.2 MPH 348.1w/m2
06/12/2011 0.23" 0.19" 0.00" 0.19" 88.6° 58.8° 75.6° 17.2% 2.9 MPH 285.9w/m2
06/13/2011 0.27" 0.22" 0.00" 0.22" 92.0° 51.3° 73.6° 24.5% 3.2 MPH 340.8w/m2
06/14/2011 0.28" 0.22" 0.00" 0.22" 97.0° 56.9° 78.2° 28.7% 3.2 MPH 348.9w/m2
06/15/2011 0.28" 0.22" 0.00" 0.22" 99.8° 59.9° 81.4° 24.6% 2.9 MPH 350.3w/m2
06/16/2011 0.32" 0.25" 0.00" 0.25" 97.2° 68.6° 84.0° 18.8% 4.7 MPH 332.1w/m2
06/17/2011 0.25" 0.20" 0.00" 0.20" 90.4° 63.2° 76.6° 23.5% 3.0 MPH 301.9w/m2
06/18/2011 0.26" 0.21" 0.00" 0.21" 94.1° 62.7° 78.6° 21.6% 2.9 MPH 320.7w/m2
06/19/2011 0.22" 0.18" 0.00" 0.18" 79.1° 56.3° 70.1° 31.0% 4.8 MPH 257.1w/m2
06/20/2011 0.26" 0.21" 0.00" 0.21" 90.2° 47.6° 70.8° 36.6% 3.1 MPH 350.8w/m2
06/21/2011 0.27" 0.21" 0.00" 0.21" 96.6° 54.8° 77.7° 27.5% 2.7 MPH 349.1w/m2
06/22/2011 0.28" 0.22" 0.00" 0.22" 103.2° 59.6° 82.4° 23.4% 2.6 MPH 356.2w/m2
06/23/2011 0.32" 0.25" 0.00" 0.25" 102.8° 68.5° 87.1° 14.5% 3.8 MPH 352.1w/m2
06/24/2011 0.30" 0.24" 0.00" 0.24" 100.2° 68.3° 85.4° 15.5% 3.2 MPH 354.7w/m2
06/25/2011 0.27" 0.22" 0.00" 0.22" 98.1° 63.7° 82.3° 16.3% 2.1 MPH 359.1w/m2
06/26/2011 0.27" 0.21" 0.00" 0.21" 98.8° 62.1° 81.7° 14.7% 2.0 MPH 359.0w/m2
06/27/2011 0.26" 0.21" 0.00" 0.21" 101.6° 59.6° 82.8° 15.3% 1.7 MPH 360.4w/m2
06/28/2011 0.37" 0.30" 0.00" 0.30" 103.0° 68.6° 89.2° 13.6% 6.0 MPH 343.5w/m2
06/29/2011 0.26" 0.21" 0.00" 0.21" 98.6° 68.2° 86.7° 20.9% 4.3 MPH 220.5w/m2
06/30/2011 0.27" 0.21" 0.00" 0.21" 90.5° 63.0° 77.3° 24.1% 3.1 MPH 347.8w/m2
Totals: 8.03" 6.43" 0.00" 6.43" 103.2° 39.0° 76.6° 21.6% 3.2 MPH 334.5w/m2